Time;durP1;ratioP1;P1;durP2;ratioP2;P2;SDS_P1;SDS_P2;PMS_P1;PMS_P2;Temp;Humidity;BMP_temperature;BMP_pressure;BME280_temperature;BME280_humidity;BME280_pressure;Samples;Min_cycle;Max_cycle;Signal;HPM_P1;HPM_P2
2022/05/10 00:00:25;;;;;;;6.47;2.70;;;;;;;12.64;65.68;101916.50;4993771;28;20189;-47
2022/05/10 00:02:54;;;;;;;5.00;3.05;;;;;;;12.70;65.00;101918.09;4994503;28;20174;-48
2022/05/10 00:05:41;;;;;;;7.65;3.00;;;;;;;12.66;65.01;101920.03;4993726;28;20699;-48
2022/05/10 00:08:10;;;;;;;5.05;2.78;;;;;;;12.67;64.87;101924.47;4993849;28;20193;-51
2022/05/10 00:10:36;;;;;;;8.95;2.97;;;;;;;12.68;64.54;101915.47;4993474;28;20205;-47
2022/05/10 00:13:03;;;;;;;7.85;3.00;;;;;;;12.74;64.11;101917.09;4993935;28;20581;-49
2022/05/10 00:15:28;;;;;;;4.40;2.80;;;;;;;12.80;63.49;101916.03;4992288;28;20169;-47
2022/05/10 00:17:54;;;;;;;4.57;2.92;;;;;;;12.82;63.40;101907.00;4993777;28;20541;-49
2022/05/10 00:20:25;;;;;;;5.18;2.58;;;;;;;12.78;63.38;101906.19;4993722;28;20244;-48
2022/05/10 00:22:52;;;;;;;5.65;2.70;;;;;;;12.85;62.85;101903.31;4993216;28;20150;-48
2022/05/10 00:25:23;;;;;;;4.80;2.83;;;;;;;12.87;62.68;101910.41;4993742;28;20509;-48
2022/05/10 00:27:49;;;;;;;7.47;2.65;;;;;;;12.84;62.76;101906.94;4993311;28;20189;-48
2022/05/10 00:30:15;;;;;;;6.82;2.85;;;;;;;12.97;61.83;101908.34;4993586;28;20197;-47
2022/05/10 00:32:41;;;;;;;6.10;2.70;;;;;;;12.88;61.98;101896.06;4993298;28;20169;-46
2022/05/10 00:35:15;;;;;;;7.07;2.90;;;;;;;12.89;61.81;101896.94;4993411;28;20183;-48
2022/05/10 00:37:43;;;;;;;4.07;2.55;;;;;;;12.91;61.70;101903.13;4993468;28;20246;-43
2022/05/10 00:40:09;;;;;;;6.60;3.13;;;;;;;12.86;61.80;101900.59;4993359;28;20613;-48
2022/05/10 00:42:41;;;;;;;5.00;2.50;;;;;;;12.89;61.54;101900.50;4993353;28;20169;-47
2022/05/10 00:45:15;;;;;;;7.32;2.92;;;;;;;12.86;61.89;101894.34;4992768;28;20173;-51
2022/05/10 00:47:56;;;;;;;4.43;2.70;;;;;;;12.79;61.82;101904.41;4992929;28;20189;-48
2022/05/10 00:50:33;;;;;;;7.82;3.10;;;;;;;12.79;62.10;101896.34;4993043;28;20247;-49
2022/05/10 00:53:06;;;;;;;6.40;2.88;;;;;;;12.77;61.94;101890.13;4993071;28;20157;-48
2022/05/10 00:55:55;;;;;;;4.55;3.00;;;;;;;12.73;62.17;101885.75;4993214;28;20239;-48
2022/05/10 00:58:37;;;;;;;8.38;2.90;;;;;;;12.67;62.21;101883.25;4991551;28;20146;-48
2022/05/10 01:01:03;;;;;;;8.20;2.72;;;;;;;12.63;62.26;101877.06;4992943;28;20552;-48
2022/05/10 01:03:37;;;;;;;7.32;3.00;;;;;;;12.64;62.37;101872.56;4992818;28;20588;-49
2022/05/10 01:06:12;;;;;;;7.95;2.53;;;;;;;12.65;61.95;101867.16;4992968;28;20225;-49
2022/05/10 01:08:45;;;;;;;6.30;3.03;;;;;;;12.63;62.13;101866.31;4992716;28;20184;-50
2022/05/10 01:11:18;;;;;;;3.83;2.45;;;;;;;12.58;62.21;101861.09;4992944;28;20197;-48
2022/05/10 01:13:46;;;;;;;5.35;2.72;;;;;;;12.55;62.51;101854.91;4991453;28;20224;-52
2022/05/10 01:16:20;;;;;;;7.03;3.00;;;;;;;12.53;62.59;101856.78;4992346;28;20558;-52
2022/05/10 01:18:47;;;;;;;6.30;2.97;;;;;;;12.51;62.64;101858.66;4985266;28;20165;-50
2022/05/10 01:21:44;;;;;;;5.18;2.90;;;;;;;12.42;62.90;101854.41;4992296;28;20568;-47
2022/05/10 01:24:27;;;;;;;6.20;3.45;;;;;;;12.43;63.08;101860.66;4992473;28;20707;-49
2022/05/10 01:27:26;;;;;;;5.68;2.70;;;;;;;12.35;63.16;101853.72;4992142;28;20181;-49
2022/05/10 01:29:59;;;;;;;5.72;3.00;;;;;;;12.33;63.37;101851.97;4992454;28;20212;-50
2022/05/10 01:35:40;;;;;;;6.47;2.90;;;;;;;12.26;63.97;101839.66;4992625;28;20207;-48
2022/05/10 01:38:16;;;;;;;6.10;2.85;;;;;;;12.27;64.02;101828.00;4992209;28;20161;-48
2022/05/10 01:40:50;;;;;;;6.90;3.50;;;;;;;12.15;64.68;101823.84;4992054;28;20205;-49
2022/05/10 01:43:34;;;;;;;8.82;2.80;;;;;;;12.14;64.65;101824.78;4991903;28;20565;-49
2022/05/10 01:46:13;;;;;;;6.97;3.15;;;;;;;12.03;64.88;101824.22;4992584;28;20170;-48
2022/05/10 01:48:42;;;;;;;9.20;3.28;;;;;;;12.04;64.89;101820.59;4991599;28;20288;-50
2022/05/10 01:51:29;;;;;;;5.93;2.63;;;;;;;11.97;65.29;101810.94;4992053;28;20208;-49
2022/05/10 01:53:55;;;;;;;4.22;2.80;;;;;;;11.98;65.04;101804.66;4991613;28;20453;-52
2022/05/10 01:56:25;;;;;;;5.03;2.80;;;;;;;12.07;64.84;101807.06;4991137;28;20173;-50
2022/05/10 01:58:51;;;;;;;7.03;3.03;;;;;;;11.99;64.96;101807.28;4991629;28;20172;-52
2022/05/10 02:01:17;;;;;;;9.70;3.38;;;;;;;11.95;65.25;101802.94;4990980;28;20248;-53
2022/05/10 02:04:17;;;;;;;8.02;2.88;;;;;;;11.93;65.16;101805.66;4974139;28;20185;-51
2022/05/10 02:06:51;;;;;;;5.30;2.67;;;;;;;11.95;65.08;101798.44;4991685;28;20602;-51
2022/05/10 02:09:27;;;;;;;6.82;2.85;;;;;;;11.91;65.32;101799.44;4991334;28;20580;-52
2022/05/10 02:11:58;;;;;;;6.80;2.90;;;;;;;11.86;65.63;101795.09;4991221;28;20163;-51
2022/05/10 02:14:30;;;;;;;8.73;3.15;;;;;;;11.82;65.80;101794.28;4991480;28;20200;-53
2022/05/10 02:17:04;;;;;;;6.30;3.10;;;;;;;11.73;66.08;101786.50;4990930;28;20181;-52
2022/05/10 02:19:40;;;;;;;5.93;2.92;;;;;;;11.69;66.68;101792.88;4991385;28;20160;-52
2022/05/10 02:22:10;;;;;;;7.53;2.75;;;;;;;11.67;66.78;101792.03;4990996;28;20215;-51
2022/05/10 02:24:50;;;;;;;7.65;3.05;;;;;;;11.62;66.89;101789.47;4991265;28;20793;-52
2022/05/10 02:27:21;;;;;;;7.20;3.00;;;;;;;11.63;66.84;101780.53;4990822;28;20193;-52
2022/05/10 02:29:50;;;;;;;6.50;3.05;;;;;;;11.63;66.76;101782.31;4991324;28;20185;-52
2022/05/10 02:35:13;;;;;;;6.28;3.28;;;;;;;11.59;66.88;101775.25;4990954;28;20235;-52
2022/05/10 02:37:38;;;;;;;6.68;3.05;;;;;;;11.61;66.90;101776.09;4990775;28;20162;-51
2022/05/10 02:40:06;;;;;;;5.47;3.17;;;;;;;11.55;67.37;101767.31;4990434;28;20201;-51
2022/05/10 02:42:32;;;;;;;5.63;3.03;;;;;;;11.49;67.34;101756.72;4990997;28;20184;-52
2022/05/10 02:44:58;;;;;;;5.85;2.83;;;;;;;11.46;67.53;101748.78;4990786;28;20176;-51
2022/05/10 02:47:34;;;;;;;5.75;3.40;;;;;;;11.43;67.90;101748.84;4973688;28;20173;-53
2022/05/10 02:50:00;;;;;;;6.28;3.08;;;;;;;11.38;68.07;101747.22;4990717;28;20664;-52
2022/05/10 02:52:26;;;;;;;5.03;2.60;;;;;;;11.39;68.05;101744.50;4989983;28;20173;-52
2022/05/10 02:54:56;;;;;;;5.25;2.75;;;;;;;11.40;67.98;101745.38;4991146;28;20240;-52
2022/05/10 02:57:24;;;;;;;5.75;3.28;;;;;;;11.42;67.76;101736.34;4991047;28;20193;-52
2022/05/10 02:59:53;;;;;;;10.13;3.30;;;;;;;11.45;67.90;101736.25;4990937;28;20574;-53
2022/05/10 03:02:26;;;;;;;9.93;3.30;;;;;;;11.55;67.62;101737.78;4990627;28;20215;-53
2022/05/10 03:04:56;;;;;;;6.43;2.90;;;;;;;11.59;67.25;101725.16;4990629;28;20213;-53
2022/05/10 03:07:23;;;;;;;7.97;3.17;;;;;;;11.54;67.27;101730.66;4975432;28;20301;-51
2022/05/10 03:09:48;;;;;;;7.95;3.15;;;;;;;11.60;66.73;101718.84;4994253;28;20632;-53
2022/05/10 03:12:14;;;;;;;5.95;3.35;;;;;;;11.58;67.39;101722.50;4994521;28;20201;-52
2022/05/10 03:14:39;;;;;;;7.30;2.75;;;;;;;11.50;67.73;101715.56;4994509;28;20687;-52
2022/05/10 03:17:05;;;;;;;5.32;3.10;;;;;;;11.47;68.17;101712.94;4987309;28;20221;-51
2022/05/10 03:19:32;;;;;;;8.07;2.85;;;;;;;11.50;68.07;101704.84;4992682;28;20255;-50
2022/05/10 03:22:00;;;;;;;5.72;3.20;;;;;;;11.56;67.87;101706.44;4992691;28;20175;-51
2022/05/10 03:24:25;;;;;;;3.88;2.97;;;;;;;11.51;67.77;101701.22;4977020;28;20174;-51
2022/05/10 03:26:52;;;;;;;9.13;3.08;;;;;;;11.49;68.00;101697.69;4994034;28;20664;-52
2022/05/10 03:29:19;;;;;;;7.95;3.20;;;;;;;11.56;67.79;101703.75;4993997;28;20240;-52
2022/05/10 03:31:45;;;;;;;7.72;3.13;;;;;;;11.57;67.59;101697.47;4993127;28;20186;-53
2022/05/10 03:36:58;;;;;;;6.85;3.30;;;;;;;11.57;67.72;101691.22;4994049;28;20173;-53
2022/05/10 03:39:24;;;;;;;7.38;3.00;;;;;;;11.61;67.49;101687.53;4993435;28;20220;-53
2022/05/10 03:41:49;;;;;;;7.72;3.60;;;;;;;11.57;68.03;101692.13;4992401;28;20189;-52
2022/05/10 03:44:14;;;;;;;10.93;3.50;;;;;;;11.54;67.87;101687.72;4993794;28;20201;-54
2022/05/10 03:46:40;;;;;;;8.80;3.40;;;;;;;11.52;68.12;101694.94;4994001;28;20172;-53
2022/05/10 03:49:05;;;;;;;10.10;3.30;;;;;;;11.61;67.95;101685.75;4993554;28;20197;-54
2022/05/10 03:51:31;;;;;;;11.07;3.28;;;;;;;11.57;68.23;101686.75;4993549;28;20256;-52
2022/05/10 03:53:57;;;;;;;9.25;3.20;;;;;;;11.61;68.09;101682.16;4993604;28;20648;-53
2022/05/10 03:56:23;;;;;;;8.07;3.30;;;;;;;11.67;67.85;101684.66;4993960;28;20240;-53
2022/05/10 03:58:49;;;;;;;6.30;2.75;;;;;;;11.60;68.27;101670.53;4993316;28;20617;-52
2022/05/10 04:01:19;;;;;;;7.28;3.13;;;;;;;11.69;67.99;101672.06;4992992;28;20703;-53
2022/05/10 04:03:45;;;;;;;5.93;3.05;;;;;;;11.67;68.05;101669.44;4992353;28;20192;-53
2022/05/10 04:06:10;;;;;;;7.13;3.08;;;;;;;11.70;68.11;101660.44;4993382;28;20162;-52
2022/05/10 04:08:36;;;;;;;9.02;3.30;;;;;;;11.67;68.46;101656.00;4993097;28;20200;-50
2022/05/10 04:11:07;;;;;;;9.50;2.90;;;;;;;11.77;68.21;101663.81;4993114;28;20284;-54
2022/05/10 04:13:33;;;;;;;5.20;2.72;;;;;;;11.84;68.04;101652.81;4992748;28;20173;-52
2022/05/10 04:15:59;;;;;;;6.57;3.20;;;;;;;11.85;68.05;101654.59;4975819;28;20651;-51
2022/05/10 04:18:26;;;;;;;6.18;3.15;;;;;;;11.96;67.82;101646.25;4992295;28;20184;-52
2022/05/10 04:20:51;;;;;;;5.63;2.95;;;;;;;11.99;67.80;101651.53;4993314;28;20193;-52
2022/05/10 04:23:16;;;;;;;7.50;3.35;;;;;;;12.08;67.55;101644.97;4992791;28;20176;-51
2022/05/10 04:25:42;;;;;;;7.47;2.92;;;;;;;12.08;67.57;101648.53;4993013;28;20200;-51
2022/05/10 04:28:08;;;;;;;8.18;3.22;;;;;;;12.13;67.60;101643.00;4993061;28;20204;-54
2022/05/10 04:30:33;;;;;;;8.43;3.13;;;;;;;12.18;67.54;101646.47;4992937;28;20296;-51
2022/05/10 04:32:59;;;;;;;6.63;3.00;;;;;;;12.22;67.40;101631.09;4992824;28;20188;-52
2022/05/10 04:35:24;;;;;;;5.68;2.90;;;;;;;12.28;67.57;101639.84;4993363;28;20640;-52
2022/05/10 04:37:50;;;;;;;8.57;3.00;;;;;;;12.33;67.30;101634.31;4993099;28;20172;-51
2022/05/10 04:42:59;;;;;;;7.13;3.38;;;;;;;12.56;67.21;101620.13;4992386;28;20182;-53
2022/05/10 04:45:24;;;;;;;6.80;3.10;;;;;;;12.58;67.22;101620.94;4993058;28;20166;-51
2022/05/10 04:47:50;;;;;;;6.43;3.15;;;;;;;12.56;67.29;101620.13;4992985;28;20671;-53
2022/05/10 04:50:16;;;;;;;6.20;3.15;;;;;;;12.60;67.26;101623.59;4992792;28;20574;-53
2022/05/10 04:52:41;;;;;;;5.80;3.13;;;;;;;12.62;67.16;101625.31;4992502;28;20218;-51
2022/05/10 04:55:09;;;;;;;3.95;2.83;;;;;;;12.63;67.69;101624.34;4992231;28;20209;-52
2022/05/10 04:57:38;;;;;;;6.68;3.15;;;;;;;12.67;67.70;101620.63;4992895;28;20173;-52
2022/05/10 05:00:06;;;;;;;9.43;3.10;;;;;;;12.73;68.04;101628.50;4992438;28;20204;-51
2022/05/10 05:02:32;;;;;;;5.35;3.30;;;;;;;12.75;68.06;101621.25;4992370;28;20173;-52
2022/05/10 05:04:57;;;;;;;5.55;3.20;;;;;;;12.81;68.09;101619.28;4992392;28;20224;-51
2022/05/10 05:07:22;;;;;;;7.82;3.25;;;;;;;12.81;68.00;101614.75;4992469;28;20177;-53
2022/05/10 05:09:48;;;;;;;7.40;3.67;;;;;;;12.91;67.68;101618.03;4991946;28;20664;-53
2022/05/10 05:12:14;;;;;;;5.82;3.38;;;;;;;12.92;67.95;101626.06;4991889;28;20169;-54
2022/05/10 05:14:41;;;;;;;8.07;3.33;;;;;;;12.91;67.96;101629.66;4992482;28;20169;-52
2022/05/10 05:17:06;;;;;;;6.78;3.13;;;;;;;13.01;67.69;101619.47;4991962;28;20614;-53
2022/05/10 05:19:31;;;;;;;7.55;3.30;;;;;;;13.04;67.79;101621.16;4991966;28;20546;-53
2022/05/10 05:21:57;;;;;;;10.50;3.22;;;;;;;13.08;67.96;101621.00;4992414;28;20196;-52
2022/05/10 05:24:22;;;;;;;5.38;2.80;;;;;;;13.14;68.06;101625.25;4992283;28;20204;-53
2022/05/10 05:26:48;;;;;;;6.20;3.20;;;;;;;13.20;67.99;101620.53;4992109;28;20211;-52
2022/05/10 05:29:14;;;;;;;8.88;3.22;;;;;;;13.22;68.19;101620.47;4992003;28;20209;-52
2022/05/10 05:31:40;;;;;;;6.47;2.92;;;;;;;13.32;67.97;101624.63;4990637;28;20198;-52
2022/05/10 05:34:05;;;;;;;6.63;3.20;;;;;;;13.34;68.22;101616.50;4992066;28;20169;-53
2022/05/10 05:36:31;;;;;;;6.90;3.00;;;;;;;13.41;67.97;101622.53;4992006;28;20687;-52
2022/05/10 05:38:56;;;;;;;8.80;2.80;;;;;;;13.49;67.93;101626.72;4991765;28;20640;-53
2022/05/10 05:41:22;;;;;;;4.80;2.85;;;;;;;13.55;68.44;101613.00;4991450;28;20683;-54
2022/05/10 05:43:47;;;;;;;7.35;3.05;;;;;;;13.62;68.34;101613.63;4991999;28;20177;-52
2022/05/10 05:46:13;;;;;;;6.18;3.20;;;;;;;13.69;68.08;101617.00;4991730;28;20177;-52
2022/05/10 05:48:39;;;;;;;8.52;3.42;;;;;;;13.77;67.88;101607.69;4991816;28;20201;-54
2022/05/10 05:51:05;;;;;;;5.35;3.28;;;;;;;13.81;67.71;101608.41;4991790;28;20571;-52
2022/05/10 05:53:31;;;;;;;7.22;3.15;;;;;;;13.90;68.13;101602.66;4991406;28;20180;-51
2022/05/10 05:56:08;;;;;;;7.88;3.53;;;;;;;13.93;68.78;101607.94;4991809;28;20165;-50
2022/05/10 05:58:34;;;;;;;6.28;3.08;;;;;;;13.99;68.44;101601.41;4991362;28;20268;-51
2022/05/10 06:01:00;;;;;;;4.40;3.20;;;;;;;14.11;67.91;101603.63;4991638;28;20681;-49
2022/05/10 06:03:25;;;;;;;7.45;3.80;;;;;;;14.18;67.62;101601.56;4991514;28;20316;-50
2022/05/10 06:05:50;;;;;;;8.57;3.00;;;;;;;14.26;68.18;101591.34;4991781;28;20176;-50
2022/05/10 06:08:18;;;;;;;9.40;3.03;;;;;;;14.35;68.22;101592.78;4991063;28;20588;-50
2022/05/10 06:10:49;;;;;;;7.55;3.10;;;;;;;14.45;67.88;101598.66;4991172;28;20766;-50
2022/05/10 06:13:22;;;;;;;5.45;3.15;;;;;;;14.48;67.73;101591.31;4990550;28;20602;-48
2022/05/10 06:15:49;;;;;;;4.40;3.03;;;;;;;14.54;67.21;101592.88;4991302;28;20178;-49
2022/05/10 06:18:15;;;;;;;8.52;3.35;;;;;;;14.57;67.42;101592.78;4988717;28;20173;-48
2022/05/10 06:20:41;;;;;;;6.13;3.10;;;;;;;14.61;67.59;101583.63;4990873;28;20224;-49
2022/05/10 06:23:06;;;;;;;6.97;3.20;;;;;;;14.60;67.72;101587.25;4989244;28;20618;-47
2022/05/10 06:25:32;;;;;;;5.93;3.42;;;;;;;14.74;66.93;101582.16;4988980;28;20315;-48
2022/05/10 06:27:58;;;;;;;7.82;3.38;;;;;;;14.80;67.15;101583.69;4989565;28;20283;-43
2022/05/10 06:30:25;;;;;;;6.18;3.25;;;;;;;14.86;67.14;101583.41;4988436;28;20683;-47
2022/05/10 06:32:51;;;;;;;7.05;3.28;;;;;;;14.93;66.78;101567.84;4990718;28;20185;-49
2022/05/10 06:35:18;;;;;;;5.72;3.17;;;;;;;15.16;66.45;101564.97;4990936;28;20264;-49
2022/05/10 06:40:29;;;;;;;7.07;3.28;;;;;;;15.69;65.38;101566.09;4973349;28;20197;-50
2022/05/10 06:42:59;;;;;;;7.13;3.47;;;;;;;15.92;64.79;101554.25;4990396;28;20248;-48
2022/05/10 06:45:26;;;;;;;7.93;3.22;;;;;;;16.09;64.13;101556.09;4990974;28;20161;-47
2022/05/10 06:47:52;;;;;;;7.15;3.28;;;;;;;16.25;63.57;101550.81;4991000;28;20200;-48
2022/05/10 06:50:20;;;;;;;7.55;3.35;;;;;;;16.23;63.50;101550.88;4988883;28;20536;-49
2022/05/10 06:52:49;;;;;;;9.63;3.78;;;;;;;16.27;63.04;101546.19;4988528;28;20272;-49
2022/05/10 06:55:15;;;;;;;4.03;2.83;;;;;;;16.48;63.03;101544.22;4969529;28;20559;-51
2022/05/10 06:57:40;;;;;;;7.95;3.53;;;;;;;16.74;62.51;101536.56;4971052;28;20236;-48
2022/05/10 07:00:08;;;;;;;6.68;3.35;;;;;;;16.96;62.35;101539.03;4971215;28;20201;-49
2022/05/10 07:02:34;;;;;;;7.90;3.85;;;;;;;17.09;61.47;101541.00;4971540;28;20174;-48
2022/05/10 07:05:00;;;;;;;5.25;3.20;;;;;;;17.53;61.15;101527.78;4971912;28;20174;-50
2022/05/10 07:07:27;;;;;;;7.10;3.45;;;;;;;17.64;60.74;101531.63;4971246;28;20163;-49
2022/05/10 07:09:52;;;;;;;7.65;3.17;;;;;;;17.60;60.84;101527.38;4982093;28;20201;-50
2022/05/10 07:12:18;;;;;;;6.10;3.33;;;;;;;17.61;61.15;101529.13;4990630;28;20257;-50
2022/05/10 07:14:45;;;;;;;6.82;3.53;;;;;;;17.47;60.77;101529.91;4990720;28;20193;-51
2022/05/10 07:17:12;;;;;;;12.38;3.28;;;;;;;17.52;61.25;101524.22;4989598;28;20213;-48
2022/05/10 07:19:37;;;;;;;10.38;3.55;;;;;;;17.54;61.61;101537.69;4990424;28;20613;-52
2022/05/10 07:22:04;;;;;;;11.73;3.28;;;;;;;17.24;61.58;101520.31;4990484;28;20553;-50
2022/05/10 07:24:29;;;;;;;8.88;3.65;;;;;;;17.36;61.59;101521.50;4990260;28;20170;-50
2022/05/10 07:26:55;;;;;;;9.68;3.70;;;;;;;17.24;62.71;101516.75;4990903;28;20255;-51
2022/05/10 07:29:22;;;;;;;7.93;3.22;;;;;;;17.53;62.47;101525.94;4990196;28;20197;-49
2022/05/10 07:31:48;;;;;;;7.53;3.40;;;;;;;17.49;62.81;101521.66;4990401;28;20331;-50
2022/05/10 07:34:13;;;;;;;7.78;3.47;;;;;;;17.63;62.05;101520.91;4989469;28;20664;-50
2022/05/10 07:36:39;;;;;;;9.98;3.97;;;;;;;17.55;61.82;101518.63;4990247;28;20197;-52
2022/05/10 07:39:11;;;;;;;8.77;3.70;;;;;;;17.53;61.94;101517.81;4990614;28;20264;-50
2022/05/10 07:41:37;;;;;;;7.90;3.65;;;;;;;17.57;62.05;101507.69;4970098;28;20615;-50
2022/05/10 07:44:04;;;;;;;6.82;3.92;;;;;;;17.34;61.80;101509.88;4982730;28;20656;-53
2022/05/10 07:46:30;;;;;;;8.40;3.85;;;;;;;17.47;62.58;101518.16;4989958;28;20173;-51
2022/05/10 07:48:55;;;;;;;16.38;4.70;;;;;;;17.58;62.61;101514.84;4989973;28;20186;-50
2022/05/10 07:51:21;;;;;;;8.80;4.13;;;;;;;17.64;63.35;101522.63;4989933;28;20209;-53
2022/05/10 07:53:47;;;;;;;9.68;3.90;;;;;;;17.83;61.99;101519.78;4990574;28;20185;-48
2022/05/10 07:56:14;;;;;;;69.05;11.02;;;;;;;17.78;63.06;101525.44;4993837;28;20173;-48
2022/05/10 07:58:40;;;;;;;10.52;4.55;;;;;;;17.59;62.57;101519.31;4993337;28;20170;-49
2022/05/10 08:01:07;;;;;;;9.05;4.00;;;;;;;17.60;63.87;101519.25;4993526;28;20232;-50
2022/05/10 08:03:32;;;;;;;6.07;3.67;;;;;;;17.48;63.92;101519.94;4993403;28;20165;-47
2022/05/10 08:06:00;;;;;;;6.05;3.85;;;;;;;17.48;64.64;101518.09;4993741;28;20180;-50
2022/05/10 08:08:28;;;;;;;7.60;4.38;;;;;;;17.50;63.94;101515.31;4993266;28;20201;-49
2022/05/10 08:10:55;;;;;;;10.38;4.63;;;;;;;17.49;64.19;101524.38;4991956;28;20690;-48
2022/05/10 08:13:23;;;;;;;7.25;4.28;;;;;;;17.49;64.23;101514.44;4993058;28;20244;-48
2022/05/10 08:15:50;;;;;;;14.38;4.40;;;;;;;17.50;64.71;101518.88;4993296;28;20300;-47
2022/05/10 08:18:17;;;;;;;9.82;4.38;;;;;;;17.41;65.42;101522.09;4993118;28;20182;-47
2022/05/10 08:20:43;;;;;;;9.50;4.80;;;;;;;17.44;64.94;101515.63;4993022;28;20205;-48
2022/05/10 08:23:11;;;;;;;8.30;4.80;;;;;;;17.35;64.71;101517.03;4992839;28;20162;-47
2022/05/10 08:25:37;;;;;;;9.85;4.15;;;;;;;17.45;65.38;101503.84;4992975;28;20555;-48
2022/05/10 08:28:03;;;;;;;12.75;4.72;;;;;;;17.45;65.58;101517.41;4975157;28;20200;-51
2022/05/10 08:30:29;;;;;;;7.50;4.40;;;;;;;17.48;65.87;101514.50;4992767;28;20228;-50
2022/05/10 08:32:55;;;;;;;10.40;4.40;;;;;;;17.55;65.26;101518.63;4992619;28;20166;-47
2022/05/10 08:35:20;;;;;;;7.28;4.28;;;;;;;17.75;64.67;101520.19;4992896;28;20181;-49
2022/05/10 08:37:46;;;;;;;9.43;4.75;;;;;;;18.00;65.34;101522.41;4992663;28;20693;-48
2022/05/10 08:40:27;;;;;;;9.13;4.97;;;;;;;18.33;62.48;101514.09;4992197;28;20251;-49
2022/05/10 08:42:57;;;;;;;10.68;5.30;;;;;;;18.49;62.99;101505.03;4992642;28;20173;-46
2022/05/10 08:45:24;;;;;;;13.73;4.93;;;;;;;18.59;61.98;101506.22;4992541;28;20609;-48
2022/05/10 08:47:51;;;;;;;12.15;5.85;;;;;;;18.57;62.11;101504.59;4992341;28;20538;-49
2022/05/10 08:50:17;;;;;;;7.05;5.13;;;;;;;18.72;62.37;101501.78;4992244;28;20750;-47
2022/05/10 08:52:47;;;;;;;13.63;5.10;;;;;;;18.84;62.06;101502.91;4992235;28;20216;-48
2022/05/10 08:55:21;;;;;;;11.38;5.35;;;;;;;18.70;62.12;101508.28;4974706;28;20204;-49
2022/05/10 08:57:57;;;;;;;11.85;5.05;;;;;;;18.86;61.33;101500.97;4992189;28;20288;-47
2022/05/10 09:00:42;;;;;;;9.88;5.82;;;;;;;18.86;60.78;101498.25;4992217;28;20201;-48
2022/05/10 09:03:33;;;;;;;10.77;5.82;;;;;;;18.90;60.62;101483.50;4991787;28;20549;-47
2022/05/10 09:06:06;;;;;;;9.68;6.03;;;;;;;18.94;61.04;101482.34;4992090;28;20174;-48
2022/05/10 09:08:59;;;;;;;14.65;6.90;;;;;;;19.05;60.13;101480.81;4991933;28;20255;-50
2022/05/10 09:11:30;;;;;;;8.57;5.90;;;;;;;19.48;59.60;101469.88;4992163;28;20229;-49
2022/05/10 09:13:56;;;;;;;12.75;6.38;;;;;;;19.59;57.99;101463.72;4992664;28;20240;-47
2022/05/10 09:16:21;;;;;;;9.00;6.07;;;;;;;19.56;59.44;101462.94;4991234;28;20256;-47
2022/05/10 09:18:53;;;;;;;9.88;5.63;;;;;;;19.86;59.19;101459.22;4992198;28;20836;-48
2022/05/10 09:21:23;;;;;;;13.18;6.30;;;;;;;20.04;58.09;101448.06;4992025;28;20565;-48
2022/05/10 09:24:06;;;;;;;12.68;5.97;;;;;;;20.55;57.55;101440.84;4992057;28;20224;-49
2022/05/10 09:26:44;;;;;;;13.55;6.40;;;;;;;20.69;55.38;101439.91;4992655;28;20667;-47
2022/05/10 09:29:23;;;;;;;9.77;5.63;;;;;;;20.90;56.16;101434.78;4992397;28;20263;-49
2022/05/10 09:34:45;;;;;;;8.75;6.18;;;;;;;21.75;53.85;101425.81;4992256;28;20177;-51
2022/05/10 09:37:14;;;;;;;12.30;7.15;;;;;;;21.50;53.86;101421.34;4992076;28;20173;-48
2022/05/10 09:39:47;;;;;;;11.25;7.28;;;;;;;21.40;53.39;101423.84;4992102;28;20257;-49
2022/05/10 09:42:29;;;;;;;11.45;7.15;;;;;;;21.40;54.46;101426.56;4991644;28;20165;-47
2022/05/10 09:45:16;;;;;;;9.35;5.82;;;;;;;22.07;53.04;101406.13;4991855;28;20698;-48
2022/05/10 09:47:54;;;;;;;13.95;6.93;;;;;;;21.85;51.37;101404.19;4991592;28;20255;-49
2022/05/10 09:50:25;;;;;;;9.52;6.03;;;;;;;22.17;51.74;101408.00;4991909;28;20440;-45
2022/05/10 09:53:12;;;;;;;16.08;7.70;;;;;;;22.07;52.14;101395.19;4991642;28;20272;-47
2022/05/10 09:55:39;;;;;;;17.15;6.93;;;;;;;22.36;51.79;101390.22;4991599;28;20185;-48
2022/05/10 09:58:24;;;;;;;14.48;6.93;;;;;;;22.07;51.28;101389.75;4992102;28;20157;-51
2022/05/10 10:00:55;;;;;;;13.73;6.43;;;;;;;21.93;51.09;101374.44;4991222;28;20204;-46
2022/05/10 10:03:29;;;;;;;16.23;6.05;;;;;;;22.12;52.29;101373.88;4991299;28;20173;-48
2022/05/10 10:06:12;;;;;;;12.32;6.55;;;;;;;22.18;51.09;101365.22;4973820;28;20180;-47
2022/05/10 10:08:56;;;;;;;10.32;6.60;;;;;;;22.44;50.16;101368.63;4991437;28;20189;-49
2022/05/10 10:11:21;;;;;;;11.07;5.40;;;;;;;22.51;49.33;101363.53;4991173;28;20519;-48
2022/05/10 10:13:50;;;;;;;10.98;5.57;;;;;;;22.73;49.18;101358.09;4973766;28;20586;-47
2022/05/10 10:16:21;;;;;;;10.23;5.10;;;;;;;22.62;51.04;101364.41;4989762;28;20246;-46
2022/05/10 10:18:51;;;;;;;14.02;5.65;;;;;;;22.48;49.16;101355.59;4991411;28;20173;-48
2022/05/10 10:21:32;;;;;;;9.88;5.00;;;;;;;22.79;49.85;101349.38;4973768;28;20205;-46
2022/05/10 10:23:59;;;;;;;9.88;4.90;;;;;;;22.67;49.67;101347.66;4991150;28;20157;-49
2022/05/10 10:26:51;;;;;;;8.05;5.20;;;;;;;22.48;49.04;101356.47;4991395;28;20172;-48
2022/05/10 10:29:19;;;;;;;7.05;4.25;;;;;;;22.97;48.69;101352.47;4991700;28;20247;-49
2022/05/10 10:31:52;;;;;;;8.10;4.57;;;;;;;22.96;47.63;101339.81;4991115;28;20734;-48
2022/05/10 10:34:40;;;;;;;9.63;4.55;;;;;;;22.72;47.79;101333.59;4991192;28;20184;-48
2022/05/10 10:37:50;;;;;;;8.35;4.50;;;;;;;23.03;47.40;101340.22;4991339;28;20211;-49
2022/05/10 10:40:39;;;;;;;8.80;4.38;;;;;;;23.26;47.17;101332.81;4984428;28;20217;-48
2022/05/10 10:43:14;;;;;;;7.10;4.10;;;;;;;22.78;47.40;101333.13;4990966;28;20173;-48
2022/05/10 10:45:44;;;;;;;14.75;4.20;;;;;;;22.96;47.17;101330.75;4991319;28;20184;-48
2022/05/10 10:48:26;;;;;;;9.18;4.15;;;;;;;22.77;47.91;101331.41;4991282;28;20211;-47
2022/05/10 10:50:52;;;;;;;8.68;4.20;;;;;;;22.83;47.28;101333.63;4991349;28;20197;-47
2022/05/10 10:53:21;;;;;;;7.43;3.45;;;;;;;23.27;46.84;101326.34;4991237;28;20177;-47
2022/05/10 10:55:50;;;;;;;5.07;3.25;;;;;;;23.17;44.01;101318.03;4991721;28;20169;-47
2022/05/10 10:58:37;;;;;;;5.95;2.75;;;;;;;22.63;42.81;101321.59;4991141;28;20177;-47
2022/05/10 11:01:20;;;;;;;4.15;2.00;;;;;;;22.67;42.62;101317.59;4991266;28;20561;-48
2022/05/10 11:04:02;;;;;;;6.68;2.50;;;;;;;22.71;42.33;101321.81;4991367;28;20252;-47
2022/05/10 11:06:34;;;;;;;8.38;2.70;;;;;;;22.69;41.63;101328.41;4991513;28;20191;-48
2022/05/10 11:09:21;;;;;;;5.90;2.00;;;;;;;22.94;43.75;101319.94;4991050;28;20275;-47
2022/05/10 11:12:07;;;;;;;4.13;2.13;;;;;;;22.87;42.64;101324.19;4990878;28;20203;-48
2022/05/10 11:14:57;;;;;;;6.63;2.20;;;;;;;22.69;41.76;101312.88;4991228;28;20628;-47
2022/05/10 11:17:54;;;;;;;6.88;2.05;;;;;;;22.41;43.01;101317.88;4973917;28;20531;-47
2022/05/10 11:20:28;;;;;;;4.93;2.05;;;;;;;22.41;43.94;101315.16;4991192;28;20196;-46
2022/05/10 11:23:06;;;;;;;4.82;1.63;;;;;;;22.08;43.44;101301.41;4990674;28;20286;-46
2022/05/10 11:26:06;;;;;;;5.15;2.03;;;;;;;22.11;43.02;101317.56;4991145;28;20169;-47
2022/05/10 11:28:47;;;;;;;6.10;1.95;;;;;;;22.13;43.19;101302.81;4993103;28;20680;-48
2022/05/10 11:31:27;;;;;;;5.22;2.17;;;;;;;22.50;42.92;101305.34;4994738;28;20205;-48
2022/05/10 11:34:17;;;;;;;3.25;1.70;;;;;;;22.97;41.94;101292.34;4994452;28;20536;-46
2022/05/10 11:36:48;;;;;;;2.80;2.00;;;;;;;22.75;42.08;101301.47;4994805;28;20173;-48
2022/05/10 11:39:38;;;;;;;3.03;1.77;;;;;;;22.53;42.83;101298.75;4977276;28;20168;-45
2022/05/10 11:42:34;;;;;;;2.20;1.60;;;;;;;22.74;43.84;101301.56;4994448;28;20179;-48
2022/05/10 11:45:40;;;;;;;4.07;1.67;;;;;;;23.00;41.35;101286.69;4976974;28;20169;-46
2022/05/10 11:48:31;;;;;;;3.78;1.70;;;;;;;23.07;41.47;101291.59;4989967;28;20263;-50
2022/05/10 11:54:27;;;;;;;3.95;2.20;;;;;;;22.81;42.22;101292.75;4993626;28;20228;-48
2022/05/10 11:56:54;;;;;;;2.38;1.75;;;;;;;22.80;42.35;101281.94;4994397;28;20223;-46
2022/05/10 11:59:28;;;;;;;5.07;2.13;;;;;;;22.83;42.57;101278.97;4994225;28;20184;-45
2022/05/10 12:01:55;;;;;;;6.72;2.47;;;;;;;22.71;43.20;101282.72;4993854;28;20694;-46